createdAt,value
2023-01-28T00:02:55.639Z,2.50
2023-01-28T00:07:58.072Z,2.50
2023-01-28T00:12:59.942Z,2.50
2023-01-28T00:18:01.833Z,2.50
2023-01-28T00:23:03.679Z,2.60
2023-01-28T00:28:05.426Z,2.50
2023-01-28T00:33:07.215Z,2.50
2023-01-28T00:38:09.579Z,2.50
2023-01-28T00:43:11.258Z,2.50
2023-01-28T00:48:13.134Z,2.50
2023-01-28T00:53:15.368Z,2.60
2023-01-28T00:58:17.086Z,2.60
2023-01-28T01:03:19.723Z,2.50
2023-01-28T01:08:34.895Z,2.60
2023-01-28T01:13:37.421Z,2.50
2023-01-28T01:18:41.962Z,2.50
2023-01-28T01:23:44.731Z,2.40
2023-01-28T01:28:46.787Z,2.50
2023-01-28T01:33:50.705Z,2.50
2023-01-28T01:38:55.840Z,2.40
2023-01-28T01:44:03.313Z,2.40
2023-01-28T01:49:13.852Z,2.40
2023-01-28T01:54:18.182Z,2.40
2023-01-28T01:59:25.682Z,2.40
2023-01-28T02:04:31.122Z,2.30
2023-01-28T02:09:36.132Z,2.20
2023-01-28T02:14:45.456Z,2.20
2023-01-28T02:20:03.705Z,2.30
2023-01-28T02:25:17.529Z,2.20
2023-01-28T02:30:48.296Z,2.20
2023-01-28T02:35:53.697Z,2.10
2023-01-28T02:41:06.606Z,2.10
2023-01-28T02:46:39.182Z,2.10
2023-01-28T02:52:14.723Z,2.00
2023-01-28T02:57:34.227Z,2.00
2023-01-28T03:02:43.445Z,2.00
2023-01-28T03:07:45.305Z,2.00
2023-01-28T03:13:10.494Z,2.00
2023-01-28T03:18:51.187Z,1.80
2023-01-28T03:24:24.249Z,1.80
2023-01-28T03:29:47.722Z,1.70
2023-01-28T03:35:08.782Z,1.80
2023-01-28T03:40:11.715Z,1.90
2023-01-28T03:45:14.961Z,1.90
2023-01-28T03:50:17.036Z,2.00
2023-01-28T03:55:19.353Z,2.10
2023-01-28T04:00:22.048Z,2.00
2023-01-28T04:05:23.963Z,1.90
2023-01-28T04:10:25.798Z,2.00
2023-01-28T04:15:27.564Z,1.90
2023-01-28T04:20:29.779Z,2.00
2023-01-28T04:25:33.859Z,2.00
2023-01-28T04:30:40.171Z,1.90
2023-01-28T04:35:42.219Z,1.90
2023-01-28T04:40:44.059Z,1.90
2023-01-28T04:45:47.236Z,1.90
2023-01-28T04:50:48.960Z,1.90
2023-01-28T04:55:50.819Z,1.90
2023-01-28T05:00:59.985Z,1.90
2023-01-28T05:06:01.941Z,1.90
2023-01-28T05:11:03.931Z,1.90
2023-01-28T05:16:06.161Z,1.80
2023-01-28T05:21:08.084Z,1.80
2023-01-28T05:26:10.317Z,1.80
2023-01-28T05:31:12.461Z,1.80
2023-01-28T05:36:14.239Z,1.70
2023-01-28T05:41:16.024Z,1.70
2023-01-28T05:46:17.742Z,1.70
2023-01-28T05:51:19.508Z,1.70
2023-01-28T05:56:21.308Z,1.70
2023-01-28T06:01:23.162Z,1.90
2023-01-28T06:06:24.963Z,1.70
2023-01-28T06:11:27.439Z,1.70
2023-01-28T06:16:29.592Z,1.70
2023-01-28T06:21:31.441Z,1.70
2023-01-28T06:26:33.215Z,1.70
2023-01-28T06:31:37.456Z,1.50
2023-01-28T06:36:39.172Z,1.60
2023-01-28T06:41:40.929Z,1.70
2023-01-28T06:46:43.032Z,1.60
2023-01-28T06:51:44.867Z,1.60
2023-01-28T06:56:46.849Z,1.60
2023-01-28T07:01:48.659Z,1.70
2023-01-28T07:06:50.454Z,1.70
2023-01-28T07:11:52.306Z,1.70
2023-01-28T07:16:54.191Z,1.80
2023-01-28T07:21:58.270Z,1.70
2023-01-28T07:26:59.991Z,1.80
2023-01-28T07:32:02.185Z,2.00
2023-01-28T07:37:03.996Z,1.80
2023-01-28T07:42:05.853Z,1.90
2023-01-28T07:47:07.630Z,1.80
2023-01-28T07:52:09.725Z,2.00
2023-01-28T07:57:11.531Z,1.80
2023-01-28T08:02:13.535Z,1.80
2023-01-28T08:07:15.386Z,2.00
2023-01-28T08:12:17.194Z,2.00
2023-01-28T08:17:19.153Z,2.00
2023-01-28T08:22:27.830Z,2.00
2023-01-28T08:27:29.825Z,1.90
2023-01-28T08:32:34.459Z,1.80
2023-01-28T08:37:36.206Z,1.80
2023-01-28T08:42:37.929Z,2.00
2023-01-28T08:48:00.861Z,1.80
2023-01-28T08:53:11.000Z,1.80
2023-01-28T08:58:18.252Z,1.70
2023-01-28T09:03:22.420Z,2.00
2023-01-28T09:08:25.345Z,2.00
2023-01-28T09:13:27.457Z,2.20
2023-01-28T09:18:29.213Z,1.90
2023-01-28T09:23:30.932Z,2.00
2023-01-28T09:28:33.469Z,2.00
2023-01-28T09:33:36.756Z,2.00
2023-01-28T09:38:38.612Z,1.90
2023-01-28T09:44:06.664Z,2.20
2023-01-28T09:49:33.789Z,2.30
2023-01-28T09:54:40.993Z,2.10
2023-01-28T09:59:42.787Z,2.10
2023-01-28T10:04:59.870Z,2.30
2023-01-28T10:10:16.507Z,2.10
2023-01-28T10:15:47.788Z,2.10
2023-01-28T10:20:57.686Z,2.10
2023-01-28T10:26:01.966Z,2.20
2023-01-28T10:31:09.090Z,2.00
2023-01-28T10:36:11.125Z,2.40
2023-01-28T10:41:19.894Z,2.50
2023-01-28T10:46:33.807Z,2.70
2023-01-28T10:51:41.180Z,2.50
2023-01-28T10:56:43.872Z,2.50
2023-01-28T11:01:49.464Z,2.60
2023-01-28T11:06:58.412Z,2.90
2023-01-28T11:12:12.020Z,2.80
2023-01-28T11:17:17.783Z,3.00
2023-01-28T11:22:42.015Z,2.70
2023-01-28T11:27:49.046Z,2.60
2023-01-28T11:33:18.244Z,2.70
2023-01-28T11:38:23.354Z,2.80
2023-01-28T11:43:31.051Z,2.70
2023-01-28T11:48:38.610Z,2.60
2023-01-28T11:54:10.114Z,2.70
2023-01-28T11:59:33.607Z,2.80
2023-01-28T12:05:00.304Z,2.60
2023-01-28T12:10:36.686Z,2.40
2023-01-28T12:16:03.614Z,2.40
2023-01-28T12:21:12.801Z,2.30
2023-01-28T12:26:19.561Z,2.40
2023-01-28T12:31:29.956Z,2.10
2023-01-28T12:37:06.715Z,2.00
2023-01-28T12:42:18.442Z,2.20
2023-01-28T12:47:26.825Z,2.30
2023-01-28T12:52:47.367Z,2.40
2023-01-28T12:57:51.543Z,2.20
2023-01-28T13:03:38.723Z,2.30
2023-01-28T13:08:40.450Z,2.30
2023-01-28T13:13:44.992Z,2.20
2023-01-28T13:18:47.036Z,2.10
2023-01-28T13:23:52.048Z,2.20
2023-01-28T13:29:06.531Z,2.40
2023-01-28T13:34:36.202Z,2.20
2023-01-28T13:39:38.277Z,2.10
2023-01-28T13:44:40.121Z,1.80
2023-01-28T13:49:44.709Z,2.00
2023-01-28T13:55:05.878Z,2.30
2023-01-28T14:00:13.225Z,2.30
2023-01-28T14:05:32.112Z,2.30
2023-01-28T14:10:58.669Z,2.50
2023-01-28T14:16:25.305Z,2.40
2023-01-28T14:21:31.137Z,2.50
2023-01-28T14:27:07.026Z,2.60
2023-01-28T14:32:16.202Z,2.90
2023-01-28T14:37:22.553Z,2.90
2023-01-28T14:42:27.309Z,2.60
2023-01-28T14:47:44.735Z,2.60
2023-01-28T14:53:00.147Z,2.80
2023-01-28T14:58:19.263Z,2.90
2023-01-28T15:03:25.932Z,3.00
2023-01-28T15:08:28.198Z,2.40
2023-01-28T15:13:36.322Z,2.60
2023-01-28T15:18:42.828Z,2.80
2023-01-28T15:23:44.640Z,2.90
2023-01-28T15:28:47.732Z,2.90
2023-01-28T15:34:11.335Z,2.80
2023-01-28T15:39:24.358Z,2.70
2023-01-28T15:44:33.443Z,2.60
2023-01-28T15:49:38.059Z,2.30
2023-01-28T15:54:43.883Z,2.00
2023-01-28T15:59:47.445Z,2.10
2023-01-28T16:05:03.762Z,2.30
2023-01-28T16:10:05.929Z,2.40
2023-01-28T16:15:19.780Z,2.30
2023-01-28T16:20:27.370Z,2.20
2023-01-28T16:25:36.926Z,2.20
2023-01-28T16:30:38.691Z,2.20
2023-01-28T16:36:03.559Z,2.30
2023-01-28T16:41:02.733Z,2.30
2023-01-28T16:46:09.177Z,2.20
2023-01-28T16:51:18.180Z,2.00
2023-01-28T17:01:48.833Z,2.10
2023-01-28T17:06:52.621Z,2.00
2023-01-28T17:11:54.833Z,2.00
2023-01-28T17:16:56.655Z,2.10
2023-01-28T17:21:59.387Z,2.10
2023-01-28T17:27:01.159Z,2.20
2023-01-28T17:32:02.947Z,2.20
2023-01-28T17:37:05.171Z,2.30
2023-01-28T17:42:06.920Z,2.30
2023-01-28T17:47:08.889Z,2.30
2023-01-28T17:52:12.860Z,2.30
2023-01-28T17:57:14.546Z,2.30
2023-01-28T18:02:16.469Z,2.20
2023-01-28T18:07:18.301Z,2.10
2023-01-28T18:12:20.087Z,2.00
2023-01-28T18:17:27.848Z,2.00
2023-01-28T18:22:29.793Z,1.90
2023-01-28T18:27:31.479Z,1.90
2023-01-28T18:32:34.381Z,1.80
2023-01-28T18:37:36.275Z,1.80
2023-01-28T18:42:38.146Z,2.10
2023-01-28T18:47:40.078Z,2.00
2023-01-28T18:52:41.906Z,2.10
2023-01-28T18:57:43.749Z,2.10
2023-01-28T19:02:46.494Z,2.10
2023-01-28T19:07:48.238Z,2.10
2023-01-28T19:12:49.938Z,2.10
2023-01-28T19:17:51.784Z,2.00
2023-01-28T19:22:53.738Z,2.00
2023-01-28T19:27:55.518Z,2.10
2023-01-28T19:32:57.241Z,2.20
2023-01-28T19:37:59.035Z,2.10
2023-01-28T19:43:00.761Z,2.00
2023-01-28T19:48:02.526Z,2.00
2023-01-28T19:53:04.242Z,1.90
2023-01-28T19:58:07.194Z,1.80
2023-01-28T20:03:08.913Z,1.80
2023-01-28T20:08:10.903Z,1.90
2023-01-28T20:13:12.630Z,1.90
2023-01-28T20:18:14.471Z,1.90
2023-01-28T20:23:16.171Z,1.80
2023-01-28T20:28:18.129Z,1.80
2023-01-28T20:33:20.983Z,1.90
2023-01-28T20:38:22.725Z,1.80
2023-01-28T20:43:24.576Z,1.80
2023-01-28T20:48:27.498Z,1.70
2023-01-28T20:53:29.243Z,1.70
2023-01-28T20:58:31.825Z,1.70
2023-01-28T21:03:34.161Z,1.70
2023-01-28T21:08:36.141Z,1.50
2023-01-28T21:13:38.096Z,1.60
2023-01-28T21:18:39.842Z,1.60
2023-01-28T21:23:41.903Z,1.60
2023-01-28T21:28:44.774Z,1.50
2023-01-28T21:33:50.666Z,1.50
2023-01-28T21:38:53.716Z,1.50
2023-01-28T21:43:57.483Z,1.60
2023-01-28T21:49:05.317Z,1.50
2023-01-28T21:54:10.307Z,1.50
2023-01-28T21:59:28.373Z,1.50
2023-01-28T22:04:38.498Z,1.40
2023-01-28T22:09:40.901Z,1.40
2023-01-28T22:14:43.783Z,1.40
2023-01-28T22:19:48.089Z,1.20
2023-01-28T22:24:50.299Z,1.00
2023-01-28T22:29:53.694Z,0.90
2023-01-28T22:34:55.384Z,0.80
2023-01-28T22:39:57.227Z,0.80
2023-01-28T22:44:59.110Z,1.00
2023-01-28T22:50:01.928Z,1.00
2023-01-28T22:55:04.764Z,1.00
2023-01-28T23:00:13.710Z,1.00
2023-01-28T23:05:15.873Z,0.90
2023-01-28T23:10:18.409Z,1.00
2023-01-28T23:15:41.337Z,0.90
2023-01-28T23:21:01.626Z,0.90
2023-01-28T23:26:04.645Z,0.70
2023-01-28T23:31:07.442Z,0.60
2023-01-28T23:36:09.232Z,0.50
2023-01-28T23:41:10.921Z,0.40
2023-01-28T23:46:12.643Z,0.30
2023-01-28T23:51:14.390Z,0.30
2023-01-28T23:56:16.079Z,0.30
